createdAt,value
2023-02-16T00:51:26.365Z,40.3
2023-02-16T00:51:33.510Z,39.7
2023-02-16T01:51:28.082Z,39.7
2023-02-16T02:06:30.627Z,40
2023-02-16T02:21:30.990Z,40.1
2023-02-16T02:51:42.976Z,39.9
2023-02-16T02:51:49.075Z,40.1
2023-02-16T04:51:56.593Z,39.1
2023-02-16T05:06:58.229Z,39.5
2023-02-16T05:21:59.775Z,40.1
2023-02-16T05:37:00.145Z,40
2023-02-16T05:52:19.804Z,39.8
2023-02-16T06:07:21.274Z,40
2023-02-16T06:22:22.790Z,39.3
2023-02-16T06:37:23.699Z,39.6
2023-02-16T06:52:17.007Z,40
2023-02-16T07:07:19.860Z,39.6
2023-02-16T07:22:20.282Z,39.1
2023-02-16T07:37:21.071Z,39.9
2023-02-16T07:52:39.766Z,39.8
2023-02-16T08:07:42.381Z,39.7
2023-02-16T08:22:43.316Z,39.7
2023-02-16T08:37:44.108Z,39.9
2023-02-16T08:52:34.889Z,40.2
2023-02-16T08:52:40.864Z,40.5
2023-02-16T09:07:43.101Z,40
2023-02-16T09:37:45.411Z,40.2
2023-02-16T09:52:42.141Z,40.7
2023-02-16T09:52:48.169Z,40.1
2023-02-16T10:07:50.281Z,40.7
2023-02-16T10:52:58.363Z,40.7
2023-02-16T11:08:00.515Z,40.7
2023-02-16T11:23:03.069Z,41.2
2023-02-16T11:38:02.006Z,41.2
2023-02-16T11:53:08.676Z,40.6
2023-02-16T12:08:11.142Z,40.8
2023-02-16T12:23:11.563Z,41.2
2023-02-16T12:38:12.741Z,40.9
2023-02-16T12:53:23.434Z,40.8
2023-02-16T12:53:29.458Z,41.3
2023-02-16T13:08:32.718Z,40.9
2023-02-16T13:23:33.465Z,41.6
2023-02-16T13:38:34.286Z,41
2023-02-16T13:53:41.305Z,41.6
2023-02-16T14:53:38.080Z,41.5
2023-02-16T15:08:40.160Z,41.5
2023-02-16T15:23:42.042Z,41.5
2023-02-16T15:38:42.140Z,41.1
2023-02-16T15:53:46.265Z,41.1
2023-02-16T15:53:52.548Z,40.2
2023-02-16T16:08:54.492Z,40.8
2023-02-16T16:53:59.829Z,40.9
2023-02-16T17:09:01.832Z,40.1
2023-02-16T17:24:02.090Z,40.5
2023-02-16T17:39:03.139Z,40.2
2023-02-16T17:54:11.934Z,40.2
2023-02-16T19:54:28.895Z,39.9
2023-02-16T20:09:31.514Z,40.5
2023-02-16T20:24:32.425Z,40.5
2023-02-16T21:54:50.585Z,40
2023-02-16T22:09:52.259Z,39.6
2023-02-16T22:24:53.073Z,40.3
2023-02-16T22:55:00.418Z,40
2023-02-16T23:10:02.719Z,39.9
2023-02-16T23:25:03.573Z,40.2
2023-02-16T23:40:04.772Z,39.5
2023-02-16T23:55:23.063Z,39.1
